createdAt,value
2022-12-15T00:02:18.654Z,93251.53
2022-12-15T00:05:04.261Z,93241.13
2022-12-15T00:07:49.362Z,93240.13
2022-12-15T00:10:34.686Z,93252.44
2022-12-15T00:13:19.874Z,93279.69
2022-12-15T00:16:07.056Z,93271.66
2022-12-15T00:18:52.453Z,93306.50
2022-12-15T00:21:37.647Z,93304.19
2022-12-15T00:24:23.144Z,93304.59
2022-12-15T00:27:08.398Z,93334.56
2022-12-15T00:29:53.558Z,93355.94
2022-12-15T00:32:38.578Z,93340.84
2022-12-15T00:35:24.885Z,93334.84
2022-12-15T00:38:09.702Z,93325.09
2022-12-15T00:40:36.424Z,93317.34
2022-12-15T00:43:03.556Z,93306.00
2022-12-15T00:45:48.737Z,93292.56
2022-12-15T00:48:15.755Z,93295.47
2022-12-15T00:50:54.201Z,93277.19
2022-12-15T00:53:41.717Z,93269.16
2022-12-15T00:56:28.128Z,93275.41
2022-12-15T00:59:13.838Z,93263.50
2022-12-15T01:01:59.573Z,93261.63
2022-12-15T01:04:45.312Z,93253.44
2022-12-15T01:07:30.516Z,93253.69
2022-12-15T01:10:15.748Z,93238.50
2022-12-15T01:13:01.133Z,93230.91
2022-12-15T01:15:46.589Z,93224.81
2022-12-15T01:18:31.560Z,93220.47
2022-12-15T01:21:03.480Z,93238.38
2022-12-15T01:23:31.289Z,93236.72
2022-12-15T01:25:58.497Z,93235.41
2022-12-15T01:28:25.393Z,93231.31
2022-12-15T01:30:52.842Z,93246.97
2022-12-15T01:33:20.467Z,93253.19
2022-12-15T01:36:01.768Z,93267.00
2022-12-15T01:38:28.990Z,93267.44
2022-12-15T01:40:59.518Z,93243.69
2022-12-15T01:43:30.409Z,93222.63
2022-12-15T01:46:20.348Z,93237.53
2022-12-15T01:48:51.765Z,93237.88
2022-12-15T01:51:33.719Z,93218.59
2022-12-15T01:54:17.748Z,93213.97
2022-12-15T01:56:48.303Z,93196.66
2022-12-15T01:59:22.675Z,93205.44
2022-12-15T02:01:49.687Z,93195.88
2022-12-15T02:04:19.826Z,93185.41
2022-12-15T02:06:46.396Z,93162.63
2022-12-15T02:09:13.469Z,93167.69
2022-12-15T02:12:05.858Z,93175.78
2022-12-15T02:14:48.917Z,93169.63
2022-12-15T02:17:45.598Z,93157.22
2022-12-15T02:20:42.052Z,93179.06
2022-12-15T02:23:46.330Z,93167.03
2022-12-15T02:26:25.419Z,93146.22
2022-12-15T02:29:29.191Z,93166.03
2022-12-15T02:32:11.533Z,93160.75
2022-12-15T02:34:49.167Z,93190.94
2022-12-15T02:37:22.625Z,93186.00
2022-12-15T02:39:49.244Z,93176.31
2022-12-15T02:42:16.420Z,93169.88
2022-12-15T02:44:43.547Z,93168.22
2022-12-15T02:47:27.552Z,93177.81
2022-12-15T02:50:29.307Z,93218.00
2022-12-15T02:53:37.135Z,93218.84
2022-12-15T02:56:19.226Z,93229.31
2022-12-15T02:59:11.222Z,93208.34
2022-12-15T03:01:50.081Z,93203.47
2022-12-15T03:04:18.200Z,93213.13
2022-12-15T03:06:44.951Z,93206.38
2022-12-15T03:09:12.511Z,93189.47
2022-12-15T03:11:39.180Z,93198.78
2022-12-15T03:14:05.776Z,93203.38
2022-12-15T03:16:32.440Z,93208.06
2022-12-15T03:18:59.066Z,93206.69
2022-12-15T03:21:25.644Z,93217.13
2022-12-15T03:23:52.240Z,93215.47
2022-12-15T03:26:18.831Z,93206.34
2022-12-15T03:28:45.531Z,93208.84
2022-12-15T03:31:12.138Z,93211.13
2022-12-15T03:33:38.784Z,93206.03
2022-12-15T03:36:05.603Z,93210.06
2022-12-15T03:38:32.227Z,93213.09
2022-12-15T03:40:58.853Z,93209.13
2022-12-15T03:43:25.480Z,93200.81
2022-12-15T03:45:52.339Z,93217.09
2022-12-15T03:48:18.959Z,93230.59
2022-12-15T03:50:47.595Z,93226.03
2022-12-15T03:53:14.293Z,93237.69
2022-12-15T03:55:40.856Z,93236.59
2022-12-15T03:58:07.630Z,93235.81
2022-12-15T04:00:34.685Z,93250.28
2022-12-15T04:03:01.427Z,93255.56
2022-12-15T04:05:30.797Z,93246.06
2022-12-15T04:07:59.093Z,93251.81
2022-12-15T04:10:33.539Z,93251.69
2022-12-15T04:13:04.214Z,93258.34
2022-12-15T04:15:30.850Z,93252.91
2022-12-15T04:17:58.393Z,93258.09
2022-12-15T04:20:24.985Z,93252.69
2022-12-15T04:22:51.775Z,93241.44
2022-12-15T04:25:40.835Z,93254.25
2022-12-15T04:28:27.261Z,93249.38
2022-12-15T04:31:24.896Z,93245.94
2022-12-15T04:34:13.213Z,93229.69
2022-12-15T04:37:00.903Z,93223.84
2022-12-15T04:39:46.333Z,93208.63
2022-12-15T04:42:31.708Z,93203.69
2022-12-15T04:45:21.264Z,93203.22
2022-12-15T04:48:07.097Z,93207.00
2022-12-15T04:50:52.436Z,93226.00
2022-12-15T04:53:38.711Z,93243.44
2022-12-15T04:56:31.135Z,93256.91
2022-12-15T04:59:16.564Z,93263.28
2022-12-15T05:02:02.596Z,93279.81
2022-12-15T05:04:47.961Z,93295.72
2022-12-15T05:07:33.925Z,93287.22
2022-12-15T05:10:19.173Z,93295.06
2022-12-15T05:13:04.243Z,93297.69
2022-12-15T05:15:51.308Z,93317.00
2022-12-15T05:18:36.382Z,93323.63
2022-12-15T05:21:21.940Z,93335.88
2022-12-15T05:24:07.327Z,93343.41
2022-12-15T05:26:53.469Z,93351.03
2022-12-15T05:29:39.239Z,93361.13
2022-12-15T05:32:06.751Z,93351.66
2022-12-15T05:34:35.105Z,93356.81
2022-12-15T05:37:03.253Z,93371.09
2022-12-15T05:39:29.930Z,93385.53
2022-12-15T05:41:57.333Z,93378.16
2022-12-15T05:44:25.085Z,93407.59
2022-12-15T05:46:51.814Z,93405.66
2022-12-15T05:49:19.185Z,93408.00
2022-12-15T05:51:47.855Z,93432.13
2022-12-15T05:54:16.765Z,93430.63
2022-12-15T05:56:43.751Z,93439.63
2022-12-15T05:59:10.361Z,93436.38
2022-12-15T06:01:37.202Z,93448.34
2022-12-15T06:04:04.370Z,93457.38
2022-12-15T06:06:31.076Z,93446.88
2022-12-15T06:08:57.772Z,93438.28
2022-12-15T06:11:24.563Z,93448.50
2022-12-15T06:13:51.158Z,93465.16
2022-12-15T06:16:21.970Z,93461.16
2022-12-15T06:18:52.446Z,93460.94
2022-12-15T06:21:25.786Z,93469.78
2022-12-15T06:23:53.308Z,93466.63
2022-12-15T06:26:30.095Z,93480.00
2022-12-15T06:28:58.771Z,93453.34
2022-12-15T06:31:26.699Z,93462.44
2022-12-15T06:34:01.409Z,93476.22
2022-12-15T06:36:30.728Z,93485.69
2022-12-15T06:39:04.332Z,93492.69
2022-12-15T06:41:32.042Z,93501.56
2022-12-15T06:43:59.657Z,93495.69
2022-12-15T06:46:28.167Z,93492.03
2022-12-15T06:48:55.201Z,93491.09
2022-12-15T06:51:22.361Z,93498.88
2022-12-15T06:53:49.919Z,93482.97
2022-12-15T06:56:30.637Z,93495.28
2022-12-15T06:58:59.622Z,93507.28
2022-12-15T07:01:26.929Z,93504.63
2022-12-15T07:03:54.694Z,93507.72
2022-12-15T07:06:21.719Z,93512.72
2022-12-15T07:08:52.506Z,93510.06
2022-12-15T07:11:21.123Z,93529.50
2022-12-15T07:13:52.518Z,93530.00
2022-12-15T07:16:20.419Z,93539.00
2022-12-15T07:18:47.388Z,93539.31
2022-12-15T07:21:14.081Z,93538.81
2022-12-15T07:23:54.043Z,93540.88
2022-12-15T07:26:22.027Z,93539.31
2022-12-15T07:28:48.617Z,93544.22
2022-12-15T07:31:15.871Z,93545.00
2022-12-15T07:33:42.975Z,93554.13
2022-12-15T07:36:11.095Z,93555.72
2022-12-15T07:38:38.235Z,93555.03
2022-12-15T07:41:09.987Z,93546.75
2022-12-15T07:43:38.117Z,93558.56
2022-12-15T07:46:05.559Z,93552.91
2022-12-15T07:48:33.248Z,93571.16
2022-12-15T07:51:11.103Z,93561.41
2022-12-15T07:53:42.194Z,93560.97
2022-12-15T07:56:10.162Z,93570.25
2022-12-15T07:58:38.163Z,93576.63
2022-12-15T08:01:07.712Z,93574.28
2022-12-15T08:03:36.050Z,93590.16
2022-12-15T08:06:08.001Z,93586.16
2022-12-15T08:08:35.827Z,93591.69
2022-12-15T08:11:07.424Z,93596.97
2022-12-15T08:16:25.370Z,93596.38
2022-12-15T08:18:52.144Z,93604.44
2022-12-15T08:21:21.199Z,93598.66
2022-12-15T08:23:48.160Z,93606.72
2022-12-15T08:26:17.629Z,93608.56
2022-12-15T08:28:44.318Z,93618.09
2022-12-15T08:31:22.147Z,93615.53
2022-12-15T08:33:49.248Z,93623.78
2022-12-15T08:36:18.293Z,93625.06
2022-12-15T08:38:46.335Z,93628.78
2022-12-15T08:41:19.320Z,93624.34
2022-12-15T08:43:49.554Z,93632.09
2022-12-15T08:46:21.695Z,93641.53
2022-12-15T08:48:49.496Z,93634.63
2022-12-15T08:51:17.432Z,93648.88
2022-12-15T08:53:44.327Z,93637.59
2022-12-15T08:56:18.613Z,93638.44
2022-12-15T08:58:47.299Z,93639.16
2022-12-15T09:01:23.948Z,93631.81
2022-12-15T09:03:53.850Z,93625.53
2022-12-15T09:06:32.716Z,93627.78
2022-12-15T09:09:03.056Z,93620.81
2022-12-15T09:11:30.412Z,93624.31
2022-12-15T09:13:57.918Z,93619.88
2022-12-15T09:16:25.494Z,93626.75
2022-12-15T09:18:54.850Z,93635.53
2022-12-15T09:21:25.157Z,93633.91
2022-12-15T09:23:54.291Z,93629.44
2022-12-15T09:26:23.241Z,93635.00
2022-12-15T09:28:51.087Z,93632.16
2022-12-15T09:31:22.027Z,93633.03
2022-12-15T09:33:51.247Z,93626.75
2022-12-15T09:36:18.031Z,93631.78
2022-12-15T09:38:45.011Z,93647.44
2022-12-15T09:41:17.224Z,93637.50
2022-12-15T09:44:06.791Z,93638.41
2022-12-15T09:46:34.268Z,93635.09
2022-12-15T09:49:10.914Z,93635.97
2022-12-15T09:51:48.027Z,93634.78
2022-12-15T09:54:14.939Z,93638.34
2022-12-15T09:56:50.270Z,93647.69
2022-12-15T09:59:26.399Z,93638.31
2022-12-15T10:02:28.674Z,93616.03
2022-12-15T10:05:03.466Z,93617.94
2022-12-15T10:07:37.281Z,93623.34
2022-12-15T10:10:12.174Z,93626.63
2022-12-15T10:12:53.198Z,93618.44
2022-12-15T10:15:27.524Z,93622.16
2022-12-15T10:18:11.907Z,93630.94
2022-12-15T10:20:38.608Z,93627.88
2022-12-15T10:23:14.232Z,93632.41
2022-12-15T10:25:47.299Z,93638.78
2022-12-15T10:28:33.223Z,93637.31
2022-12-15T10:31:07.998Z,93640.69
2022-12-15T10:33:47.174Z,93653.06
2022-12-15T10:36:16.790Z,93650.06
2022-12-15T10:38:50.416Z,93644.16
2022-12-15T10:41:23.694Z,93642.38
2022-12-15T10:43:52.068Z,93643.69
2022-12-15T10:46:23.411Z,93645.88
2022-12-15T10:49:23.249Z,93639.53
2022-12-15T10:51:57.308Z,93649.09
2022-12-15T10:54:31.790Z,93643.47
2022-12-15T10:57:02.957Z,93655.31
2022-12-15T10:59:36.376Z,93644.56
2022-12-15T11:02:25.675Z,93640.97
2022-12-15T11:04:57.954Z,93645.09
2022-12-15T11:07:36.071Z,93643.91
2022-12-15T11:10:25.344Z,93641.84
2022-12-15T11:13:13.779Z,93642.50
2022-12-15T11:15:53.216Z,93650.50
2022-12-15T11:19:00.000Z,93650.03
2022-12-15T11:21:35.099Z,93652.06
2022-12-15T11:24:22.608Z,93650.63
2022-12-15T11:26:53.035Z,93645.03
2022-12-15T11:29:57.178Z,93653.97
2022-12-15T11:32:27.281Z,93645.72
2022-12-15T11:34:55.242Z,93650.13
2022-12-15T11:37:37.343Z,93643.91
2022-12-15T11:40:36.766Z,93659.97
2022-12-15T11:43:26.933Z,93662.03
2022-12-15T11:46:18.266Z,93667.88
2022-12-15T11:49:19.938Z,93666.81
2022-12-15T11:51:57.903Z,93668.28
2022-12-15T11:54:28.393Z,93673.44
2022-12-15T11:57:32.427Z,93658.75
2022-12-15T12:00:15.851Z,93668.97
2022-12-15T12:03:10.182Z,93674.91
2022-12-15T12:05:42.662Z,93681.06
2022-12-15T12:08:29.473Z,93675.75
2022-12-15T12:11:36.923Z,93682.00
2022-12-15T12:14:34.175Z,93674.69
2022-12-15T12:17:12.051Z,93676.47
2022-12-15T12:19:45.715Z,93681.31
2022-12-15T12:22:40.233Z,93676.75
2022-12-15T12:25:15.469Z,93687.72
2022-12-15T12:28:13.551Z,93688.41
2022-12-15T12:30:45.433Z,93692.34
2022-12-15T12:33:36.747Z,93689.41
2022-12-15T12:36:10.955Z,93704.63
2022-12-15T12:38:58.148Z,93705.81
2022-12-15T12:41:39.535Z,93704.50
2022-12-15T12:44:38.651Z,93718.75
2022-12-15T12:47:20.190Z,93721.69
2022-12-15T12:49:58.837Z,93715.59
2022-12-15T12:52:28.191Z,93714.16
2022-12-15T12:55:09.454Z,93716.63
2022-12-15T12:57:39.229Z,93721.78
2022-12-15T13:00:08.666Z,93719.44
2022-12-15T13:02:37.009Z,93723.09
2022-12-15T13:05:35.590Z,93726.06
2022-12-15T13:08:08.182Z,93731.56
2022-12-15T13:10:48.298Z,93725.47
2022-12-15T13:13:30.123Z,93718.91
2022-12-15T13:16:11.864Z,93715.94
2022-12-15T13:18:58.990Z,93731.03
2022-12-15T13:21:44.048Z,93734.66
2022-12-15T13:24:25.612Z,93739.09
2022-12-15T13:26:52.972Z,93744.78
2022-12-15T13:29:25.584Z,93729.19
2022-12-15T13:31:53.275Z,93736.66
2022-12-15T13:34:28.680Z,93736.59
2022-12-15T13:36:57.250Z,93734.19
2022-12-15T13:39:29.972Z,93741.31
2022-12-15T13:44:51.909Z,93750.03
2022-12-15T13:47:30.089Z,93759.63
2022-12-15T13:50:02.280Z,93751.34
2022-12-15T13:53:16.200Z,93754.94
2022-12-15T13:55:27.242Z,93753.97
2022-12-15T13:58:00.731Z,93758.44
2022-12-15T14:00:27.473Z,93765.56
2022-12-15T14:03:13.192Z,93772.41
2022-12-15T14:05:42.967Z,93767.69
2022-12-15T14:08:14.443Z,93773.72
2022-12-15T14:10:42.087Z,93786.34
2022-12-15T14:16:21.185Z,93786.25
2022-12-15T14:19:23.276Z,93794.34
2022-12-15T14:21:56.359Z,93787.91
2022-12-15T14:24:42.761Z,93800.69
2022-12-15T14:27:09.396Z,93796.41
2022-12-15T14:29:36.119Z,93799.50
2022-12-15T14:32:03.588Z,93804.22
2022-12-15T14:34:41.787Z,93814.03
2022-12-15T14:37:16.510Z,93814.63
2022-12-15T14:39:46.218Z,93825.56
2022-12-15T14:42:21.900Z,93839.97
2022-12-15T14:47:36.012Z,93832.94
2022-12-15T14:50:04.248Z,93839.19
2022-12-15T14:52:39.346Z,93842.47
2022-12-15T14:55:21.250Z,93845.88
2022-12-15T14:57:48.909Z,93840.47
2022-12-15T15:00:31.281Z,93833.56
2022-12-15T15:03:09.925Z,93831.03
2022-12-15T15:03:14.222Z,93781.78
2022-12-15T15:03:20.031Z,93840.97
2022-12-15T15:05:55.901Z,93835.53
2022-12-15T15:08:35.449Z,93846.94
2022-12-15T15:11:19.299Z,93836.91
2022-12-15T15:13:46.958Z,93842.63
2022-12-15T15:16:19.104Z,93855.22
2022-12-15T15:18:54.095Z,93862.66
2022-12-15T15:21:24.034Z,93862.97
2022-12-15T15:24:12.203Z,93866.63
2022-12-15T15:26:40.062Z,93858.63
2022-12-15T15:29:42.122Z,93860.19
2022-12-15T15:32:19.444Z,93869.97
2022-12-15T15:34:47.304Z,93869.44
2022-12-15T15:37:26.226Z,93867.31
2022-12-15T15:39:56.323Z,93877.72
2022-12-15T15:42:26.526Z,93872.84
2022-12-15T15:44:55.800Z,93876.19
2022-12-15T15:47:26.114Z,93881.03
2022-12-15T15:49:54.977Z,93875.72
2022-12-15T15:52:23.003Z,93874.88
2022-12-15T15:54:50.147Z,93880.59
2022-12-15T15:57:17.893Z,93878.28
2022-12-15T15:59:45.306Z,93883.50
2022-12-15T16:02:13.817Z,93890.25
2022-12-15T16:04:44.825Z,93886.72
2022-12-15T16:07:25.602Z,93894.47
2022-12-15T16:09:53.637Z,93880.97
2022-12-15T16:12:29.580Z,93890.16
2022-12-15T16:14:56.562Z,93895.25
2022-12-15T16:17:25.471Z,93897.91
2022-12-15T16:19:52.076Z,93904.31
2022-12-15T16:22:21.341Z,93902.22
2022-12-15T16:24:51.732Z,93896.31
2022-12-15T16:27:19.459Z,93898.94
2022-12-15T16:29:46.036Z,93911.00
2022-12-15T16:32:13.417Z,93918.53
2022-12-15T16:34:41.628Z,93918.06
2022-12-15T16:37:26.320Z,93916.88
2022-12-15T16:39:53.310Z,93915.63
2022-12-15T16:42:19.932Z,93913.97
2022-12-15T16:44:46.569Z,93919.06
2022-12-15T16:47:13.198Z,93922.50
2022-12-15T16:49:40.578Z,93928.25
2022-12-15T16:52:18.409Z,93934.03
2022-12-15T16:54:48.874Z,93927.16
2022-12-15T16:57:15.591Z,93940.81
2022-12-15T16:59:42.188Z,93928.25
2022-12-15T17:02:36.103Z,93939.59
2022-12-15T17:05:02.881Z,93944.22
2022-12-15T17:07:29.692Z,93945.44
2022-12-15T17:09:56.717Z,93937.19
2022-12-15T17:12:23.494Z,93949.13
2022-12-15T17:14:50.026Z,93948.47
2022-12-15T17:17:19.708Z,93947.47
2022-12-15T17:20:19.765Z,93940.94
2022-12-15T17:22:33.878Z,93950.22
2022-12-15T17:25:00.524Z,93948.91
2022-12-15T17:27:29.536Z,93964.00
2022-12-15T17:29:59.540Z,93963.00
2022-12-15T17:32:26.823Z,93970.09
2022-12-15T17:34:53.470Z,93981.06
2022-12-15T17:37:20.073Z,93975.31
2022-12-15T17:39:51.231Z,93983.94
2022-12-15T17:42:20.218Z,93980.72
2022-12-15T17:44:51.806Z,93978.50
2022-12-15T17:47:25.998Z,93980.84
2022-12-15T17:49:58.516Z,93977.41
2022-12-15T17:52:30.914Z,93976.63
2022-12-15T17:54:57.985Z,93991.50
2022-12-15T17:57:25.600Z,94002.38
2022-12-15T17:59:58.240Z,93987.38
2022-12-15T18:02:25.041Z,93986.47
2022-12-15T18:04:51.951Z,93976.06
2022-12-15T18:07:22.042Z,93977.28
2022-12-15T18:09:50.368Z,93980.75
2022-12-15T18:12:22.655Z,93968.50
2022-12-15T18:14:49.757Z,93975.75
2022-12-15T18:17:16.652Z,93970.63
2022-12-15T18:19:46.617Z,93970.22
2022-12-15T18:22:22.942Z,93970.22
2022-12-15T18:24:54.095Z,93965.94
2022-12-15T18:27:26.995Z,93967.84
2022-12-15T18:29:54.058Z,93975.97
2022-12-15T18:32:23.754Z,93979.22
2022-12-15T18:35:18.901Z,93975.03
2022-12-15T18:38:27.291Z,93986.56
2022-12-15T18:41:00.294Z,93968.81
2022-12-15T18:43:39.051Z,93985.06
2022-12-15T18:46:13.452Z,93987.22
2022-12-15T18:48:41.320Z,93981.72
2022-12-15T18:51:22.329Z,93976.19
2022-12-15T18:53:49.351Z,93979.69
2022-12-15T18:56:18.191Z,93968.72
2022-12-15T18:58:45.697Z,93967.94
2022-12-15T19:01:12.345Z,93973.06
2022-12-15T19:03:41.024Z,93976.34
2022-12-15T19:06:20.303Z,93985.06
2022-12-15T19:08:50.902Z,93975.25
2022-12-15T19:11:30.949Z,93963.41
2022-12-15T19:13:59.325Z,93963.06
2022-12-15T19:16:26.852Z,93968.34
2022-12-15T19:19:17.076Z,93969.00
2022-12-15T19:22:02.940Z,93975.03
2022-12-15T19:24:50.367Z,93971.25
2022-12-15T19:27:23.250Z,93981.97
2022-12-15T19:29:50.631Z,93993.56
2022-12-15T19:32:17.219Z,93988.09
2022-12-15T19:34:44.331Z,93998.94
2022-12-15T19:37:25.166Z,94000.78
2022-12-15T19:39:52.315Z,94002.41
2022-12-15T19:42:28.039Z,94005.44
2022-12-15T19:44:54.663Z,94004.59
2022-12-15T19:47:21.482Z,94006.25
2022-12-15T19:49:48.054Z,94008.03
2022-12-15T19:52:16.502Z,94013.25
2022-12-15T19:54:45.233Z,94010.22
2022-12-15T19:57:13.084Z,94016.84
2022-12-15T19:59:39.869Z,94010.06
2022-12-15T20:02:09.012Z,94009.66
2022-12-15T20:04:35.827Z,94009.38
2022-12-15T20:07:04.193Z,94019.72
2022-12-15T20:09:30.831Z,94003.28
2022-12-15T20:11:57.785Z,94007.75
2022-12-15T20:14:24.870Z,94018.59
2022-12-15T20:16:51.604Z,94017.13
2022-12-15T20:19:18.270Z,94027.34
2022-12-15T20:21:47.738Z,94023.19
2022-12-15T20:24:18.886Z,94023.53
2022-12-15T20:26:46.644Z,94013.50
2022-12-15T20:29:28.929Z,94008.50
2022-12-15T20:31:57.630Z,94012.47
2022-12-15T20:34:24.844Z,94011.47
2022-12-15T20:36:51.705Z,94009.00
2022-12-15T20:39:21.165Z,93998.03
2022-12-15T20:41:47.859Z,93995.94
2022-12-15T20:44:14.534Z,94001.41
2022-12-15T20:46:41.606Z,93993.75
2022-12-15T20:49:22.440Z,93994.59
2022-12-15T20:51:49.261Z,93996.66
2022-12-15T20:54:21.589Z,93990.84
2022-12-15T20:56:49.468Z,94004.00
2022-12-15T20:59:17.689Z,93993.53
2022-12-15T21:01:44.730Z,93985.84
2022-12-15T21:04:26.858Z,93988.50
2022-12-15T21:06:55.240Z,93995.47
2022-12-15T21:09:22.357Z,93990.97
2022-12-15T21:11:49.653Z,94002.72
2022-12-15T21:14:19.621Z,93999.19
2022-12-15T21:16:46.947Z,94004.03
2022-12-15T21:19:20.262Z,93999.91
2022-12-15T21:21:51.894Z,94000.56
2022-12-15T21:24:24.997Z,94017.53
2022-12-15T21:26:52.003Z,94035.91
2022-12-15T21:29:24.963Z,94034.69
2022-12-15T21:31:51.744Z,94032.22
2022-12-15T21:34:18.407Z,94028.13
2022-12-15T21:36:47.687Z,94032.25
2022-12-15T21:39:34.147Z,94014.63
2022-12-15T21:42:11.436Z,94005.72
2022-12-15T21:44:38.052Z,93992.31
2022-12-15T21:47:47.109Z,94001.31
2022-12-15T21:50:14.854Z,94013.81
2022-12-15T21:52:41.798Z,94016.22
2022-12-15T21:55:21.265Z,94015.91
2022-12-15T21:57:47.963Z,94011.41
2022-12-15T22:00:17.513Z,94003.09
2022-12-15T22:02:45.606Z,93995.66
2022-12-15T22:05:20.640Z,93985.69
2022-12-15T22:07:48.885Z,93987.59
2022-12-15T22:10:16.506Z,93984.72
2022-12-15T22:12:45.728Z,94002.81
2022-12-15T22:15:15.554Z,93999.94
2022-12-15T22:17:42.544Z,93981.22
2022-12-15T22:20:21.225Z,93992.75
2022-12-15T22:22:48.275Z,93989.47
2022-12-15T22:25:25.770Z,93985.22
2022-12-15T22:27:52.665Z,93990.66
2022-12-15T22:30:25.763Z,93974.91
2022-12-15T22:32:52.857Z,93971.94
2022-12-15T22:35:25.938Z,93968.84
2022-12-15T22:37:56.383Z,93951.13
2022-12-15T22:40:24.295Z,93957.31
2022-12-15T22:42:57.693Z,93957.19
2022-12-15T22:45:24.419Z,93954.88
2022-12-15T22:47:52.438Z,93954.53
2022-12-15T22:50:22.059Z,93941.34
2022-12-15T22:52:48.786Z,93951.28
2022-12-15T22:55:17.764Z,93951.63
2022-12-15T22:57:50.332Z,93966.66
2022-12-15T23:00:17.983Z,93965.81
2022-12-15T23:02:46.502Z,93962.97
2022-12-15T23:05:16.004Z,93959.53
2022-12-15T23:07:44.243Z,93963.81
2022-12-15T23:10:33.003Z,93951.66
2022-12-15T23:12:59.719Z,93958.63
2022-12-15T23:15:46.615Z,93965.72
2022-12-15T23:18:13.734Z,93967.22
2022-12-15T23:20:41.338Z,93968.63
2022-12-15T23:23:08.426Z,93972.00
2022-12-15T23:25:35.043Z,93979.56
2022-12-15T23:28:02.116Z,93965.44
2022-12-15T23:30:28.757Z,93963.28
2022-12-15T23:32:55.608Z,93968.25
2022-12-15T23:35:22.541Z,93965.94
2022-12-15T23:37:49.269Z,93962.97
2022-12-15T23:40:22.190Z,93971.16
2022-12-15T23:42:50.517Z,93971.25
2022-12-15T23:45:18.197Z,93963.69
2022-12-15T23:47:44.889Z,93957.38
2022-12-15T23:50:11.785Z,93958.16
2022-12-15T23:52:38.427Z,93951.03
2022-12-15T23:55:05.516Z,93950.13
2022-12-15T23:57:32.146Z,93949.97
2022-12-15T23:59:58.845Z,93947.31
